Terminal Aerodrome Forecast
Issued by NWS

Home | Current Version | Previous Version | Graphics & Text | Print | Product List | Glossary On
Versions: 1 2 3 4 5 6 7 8 9 10 11 12 13 14 15 16 17 18 19 20
000
FTUS43 KICT 161352 AAA
TAFHUT
TAF AMD
KHUT 161352Z 1614/1712 13009KT P6SM BKN150
     FM161600 15013G22KT P6SM BKN035
     FM170100 13009KT P6SM SCT030 OVC100
      TEMPO 1708/1712 4SM BR OVC012=

USA.gov is the U.S. government's official web portal to all federal, state and local government web resources and services.